DSM weather

Des Moines International Airport
Des Moines, Iowa, United States

Public forecast

Using degrees Fahrenheit for public forecast. Weather courtesy of forecast.io.

Current aviation weather report (METAR) for Des Moines International Airport

Retrieved 2019/11/20 17:54 UTC (34 minutes ago):

KDSM 201754Z 14017G26KT 10SM FEW200 OVC250 14/02 A2991 RMK AO2 PK WND 14028/1730 SLP130 T01390017 10139 20056 58023

Aviation forecast (TAF) for Des Moines International Airport

Retrieved 2019/11/20 18:30 UTC (0 seconds ago):

TAF KDSM 201727Z 2018/2118 14013G21KT P6SM BKN200 FM210200 17012G23KT 6SM -RA OVC030 WS020/19045KT FM210600 18012G25KT 3SM -SHRA VCTS OVC010CB WS020/20045KT FM211000 22011G23KT 6SM -RA OVC010 FM211300 28015G25KT P6SM OVC015